Time,TemperatureF,DewpointF,PressureIn,WindDirection,WindDirectionDegrees,WindSpeedMPH,WindSpeedGustMPH,Humidity,HourlyPrecipIn,Conditions,Clouds,dailyrainin,SoftwareType,DateUTC
2013-04-25 00:03:00,44.8,39.0,30.02,SSW,198,0.0,-999.0,79,-99.99,,,0.00,weatherlink.com 1.10,2013-04-25 07:03:00,
2013-04-25 00:18:00,44.6,38.0,30.02,SSW,198,0.0,-999.0,79,-99.99,,,0.00,weatherlink.com 1.10,2013-04-25 07:18:00,
2013-04-25 00:33:00,44.3,39.0,30.01,SSW,198,1.0,-999.0,81,-99.99,,,0.00,weatherlink.com 1.10,2013-04-25 07:33:00,
2013-04-25 00:48:00,44.0,38.0,30.02,SSW,198,0.0,-999.0,80,-99.99,,,0.00,weatherlink.com 1.10,2013-04-25 07:48:00,
2013-04-25 01:03:00,43.7,38.0,30.01,SSW,198,0.0,-999.0,81,-99.99,,,0.00,weatherlink.com 1.10,2013-04-25 08:03:00,
2013-04-25 01:18:00,43.1,38.0,30.01,SSW,198,0.0,-999.0,82,-99.99,,,0.00,weatherlink.com 1.10,2013-04-25 08:18:00,
2013-04-25 01:33:00,42.7,38.0,30.01,SSW,198,0.0,-999.0,82,-99.99,,,0.00,weatherlink.com 1.10,2013-04-25 08:33:00,
2013-04-25 01:48:00,42.2,37.0,30.00,SSW,198,0.0,-999.0,83,-99.99,,,0.00,weatherlink.com 1.10,2013-04-25 08:48:00,
2013-04-25 02:03:00,41.6,37.0,30.00,SSW,198,0.0,-999.0,84,-99.99,,,0.00,weatherlink.com 1.10,2013-04-25 09:03:00,
2013-04-25 02:18:00,41.2,37.0,30.00,SSW,198,0.0,-999.0,85,-99.99,,,0.00,weatherlink.com 1.10,2013-04-25 09:18:00,
2013-04-25 02:33:00,40.7,37.0,30.00,SSW,198,0.0,-999.0,85,-99.99,,,0.00,weatherlink.com 1.10,2013-04-25 09:33:00,
2013-04-25 02:48:00,40.4,37.0,30.00,SSW,198,0.0,-999.0,86,-99.99,,,0.00,weatherlink.com 1.10,2013-04-25 09:48:00,
2013-04-25 03:03:00,40.0,37.0,30.00,SSW,198,0.0,-999.0,87,-99.99,,,0.00,weatherlink.com 1.10,2013-04-25 10:03:00,
2013-04-25 03:18:00,39.6,36.0,30.00,SSW,198,0.0,-999.0,87,-99.99,,,0.00,weatherlink.com 1.10,2013-04-25 10:18:00,
2013-04-25 03:33:00,39.3,36.0,30.01,SSW,198,0.0,-999.0,88,-99.99,,,0.00,weatherlink.com 1.10,2013-04-25 10:33:00,
2013-04-25 03:48:00,39.0,36.0,30.00,SSW,198,0.0,-999.0,88,-99.99,,,0.00,weatherlink.com 1.10,2013-04-25 10:48:00,
2013-04-25 04:03:00,38.8,36.0,30.01,SSW,198,0.0,-999.0,88,-99.99,,,0.00,weatherlink.com 1.10,2013-04-25 11:03:00,
2013-04-25 04:18:00,38.7,36.0,30.01,SSW,198,0.0,-999.0,88,-99.99,,,0.00,weatherlink.com 1.10,2013-04-25 11:18:00,
2013-04-25 04:34:00,38.2,35.0,30.01,SSW,198,0.0,-999.0,87,-99.99,,,0.00,weatherlink.com 1.10,2013-04-25 11:34:00,
2013-04-25 04:49:00,37.9,35.0,30.01,SSW,198,0.0,-999.0,88,-99.99,,,0.00,weatherlink.com 1.10,2013-04-25 11:49:00,
2013-04-25 05:04:00,37.6,35.0,30.01,SSW,198,0.0,-999.0,89,-99.99,,,0.00,weatherlink.com 1.10,2013-04-25 12:04:00,
2013-04-25 05:19:00,37.3,34.0,30.01,SSW,198,0.0,-999.0,89,-99.99,,,0.00,weatherlink.com 1.10,2013-04-25 12:19:00,
2013-04-25 05:34:00,37.0,34.0,30.01,SSW,198,0.0,-999.0,90,-99.99,,,0.00,weatherlink.com 1.10,2013-04-25 12:34:00,
2013-04-25 05:49:00,36.9,34.0,30.01,SSW,198,0.0,-999.0,90,-99.99,,,0.00,weatherlink.com 1.10,2013-04-25 12:49:00,
2013-04-25 06:04:00,36.6,34.0,30.01,SSW,198,0.0,-999.0,90,-99.99,,,0.00,weatherlink.com 1.10,2013-04-25 13:04:00,
2013-04-25 06:19:00,36.8,34.0,30.02,SSW,198,0.0,-999.0,90,-99.99,,,0.00,weatherlink.com 1.10,2013-04-25 13:19:00,
2013-04-25 06:34:00,36.8,34.0,30.02,SSW,198,0.0,-999.0,90,-99.99,,,0.00,weatherlink.com 1.10,2013-04-25 13:34:00,
2013-04-25 06:49:00,37.3,35.0,30.02,SSW,198,0.0,-999.0,90,-99.99,,,0.00,weatherlink.com 1.10,2013-04-25 13:49:00,
2013-04-25 07:04:00,37.8,35.0,30.02,SSW,198,0.0,-999.0,90,-99.99,,,0.00,weatherlink.com 1.10,2013-04-25 14:04:00,
2013-04-25 07:19:00,39.0,36.0,30.02,SSW,198,0.0,-999.0,89,-99.99,,,0.00,weatherlink.com 1.10,2013-04-25 14:19:00,
2013-04-25 07:34:00,40.5,36.0,30.02,SSW,198,0.0,-999.0,84,-99.99,,,0.00,weatherlink.com 1.10,2013-04-25 14:34:00,
2013-04-25 07:49:00,41.2,36.0,30.02,SSW,198,0.0,-999.0,83,-99.99,,,0.00,weatherlink.com 1.10,2013-04-25 14:49:00,
2013-04-25 08:04:00,43.3,38.0,30.01,SSW,198,0.0,-999.0,80,-99.99,,,0.00,weatherlink.com 1.10,2013-04-25 15:04:00,
2013-04-25 08:19:00,43.9,37.0,30.01,SSW,198,0.0,-999.0,76,-99.99,,,0.00,weatherlink.com 1.10,2013-04-25 15:19:00,
2013-04-25 08:34:00,46.5,38.0,30.01,SSW,198,0.0,-999.0,71,-99.99,,,0.00,weatherlink.com 1.10,2013-04-25 15:34:00,
2013-04-25 08:49:00,48.6,38.0,30.01,SSW,198,0.0,-999.0,66,-99.99,,,0.00,weatherlink.com 1.10,2013-04-25 15:49:00,
2013-04-25 09:04:00,49.1,38.0,30.00,SSW,198,1.0,-999.0,67,-99.99,,,0.00,weatherlink.com 1.10,2013-04-25 16:04:00,
2013-04-25 09:19:00,50.6,38.0,30.00,SSW,198,0.0,-999.0,63,-99.99,,,0.00,weatherlink.com 1.10,2013-04-25 16:19:00,
2013-04-25 09:34:00,52.5,38.0,30.00,SSW,198,1.0,-999.0,58,-99.99,,,0.00,weatherlink.com 1.10,2013-04-25 16:34:00,
2013-04-25 09:49:00,54.0,38.0,30.00,SSW,198,0.0,-999.0,56,-99.99,,,0.00,weatherlink.com 1.10,2013-04-25 16:49:00,
2013-04-25 10:04:00,55.4,37.0,30.00,SSW,198,0.0,-999.0,51,-99.99,,,0.00,weatherlink.com 1.10,2013-04-25 17:04:00,
2013-04-25 10:19:00,57.7,39.0,29.99,SSW,198,1.0,-999.0,50,-99.99,,,0.00,weatherlink.com 1.10,2013-04-25 17:19:00,
2013-04-25 10:34:00,58.3,38.0,29.99,SSW,198,1.0,-999.0,47,-99.99,,,0.00,weatherlink.com 1.10,2013-04-25 17:34:00,
2013-04-25 10:49:00,59.5,39.0,29.98,SSW,198,2.0,-999.0,46,-99.99,,,0.00,weatherlink.com 1.10,2013-04-25 17:49:00,
2013-04-25 11:04:00,61.2,38.0,29.98,SSW,198,2.0,-999.0,43,-99.99,,,0.00,weatherlink.com 1.10,2013-04-25 18:04:00,
2013-04-25 11:19:00,62.7,37.0,29.97,WSW,255,2.0,-999.0,39,-99.99,,,0.00,weatherlink.com 1.10,2013-04-25 18:19:00,
2013-04-25 11:34:00,64.2,35.0,29.96,South,183,1.0,-999.0,34,-99.99,,,0.00,weatherlink.com 1.10,2013-04-25 18:34:00,
2013-04-25 11:49:00,65.1,36.0,29.96,SSW,211,3.0,-999.0,34,-99.99,,,0.00,weatherlink.com 1.10,2013-04-25 18:49:00,
2013-04-25 12:04:00,66.5,36.0,29.96,SSW,196,4.0,-999.0,33,-99.99,,,0.00,weatherlink.com 1.10,2013-04-25 19:04:00,
2013-04-25 12:19:00,66.8,35.0,29.95,WSW,250,3.0,-999.0,31,-99.99,,,0.00,weatherlink.com 1.10,2013-04-25 19:19:00,
2013-04-25 12:34:00,67.9,35.0,29.95,West,271,6.0,-999.0,30,-99.99,,,0.00,weatherlink.com 1.10,2013-04-25 19:34:00,
2013-04-25 12:49:00,68.0,35.0,29.95,West,274,2.0,-999.0,30,-99.99,,,0.00,weatherlink.com 1.10,2013-04-25 19:49:00,
2013-04-25 13:04:00,68.5,35.0,29.95,West,272,4.0,-999.0,29,-99.99,,,0.00,weatherlink.com 1.10,2013-04-25 20:04:00,
2013-04-25 13:19:00,69.2,36.0,29.95,West,269,2.0,-999.0,29,-99.99,,,0.00,weatherlink.com 1.10,2013-04-25 20:19:00,
2013-04-25 13:34:00,69.5,36.0,29.95,South,180,5.0,-999.0,29,-99.99,,,0.00,weatherlink.com 1.10,2013-04-25 20:34:00,
2013-04-25 13:49:00,69.9,37.0,29.95,SSE,149,6.0,-999.0,30,-99.99,,,0.00,weatherlink.com 1.10,2013-04-25 20:49:00,
2013-04-25 14:04:00,70.7,38.0,29.95,SSE,168,5.0,-999.0,30,-99.99,,,0.00,weatherlink.com 1.10,2013-04-25 21:04:00,
2013-04-25 14:19:00,70.3,36.0,29.95,South,175,6.0,-999.0,29,-99.99,,,0.00,weatherlink.com 1.10,2013-04-25 21:19:00,
2013-04-25 14:34:00,71.3,37.0,29.95,SSW,194,3.0,-999.0,29,-99.99,,,0.00,weatherlink.com 1.10,2013-04-25 21:34:00,
2013-04-25 14:49:00,71.6,37.0,29.95,WNW,290,1.0,-999.0,28,-99.99,,,0.00,weatherlink.com 1.10,2013-04-25 21:49:00,
2013-04-25 15:05:00,71.7,37.0,29.95,South,173,5.0,-999.0,28,-99.99,,,0.00,weatherlink.com 1.10,2013-04-25 22:05:00,
2013-04-25 15:20:00,72.5,36.0,29.94,East,82,1.0,-999.0,26,-99.99,,,0.00,weatherlink.com 1.10,2013-04-25 22:20:00,
2013-04-25 15:35:00,72.6,36.0,29.93,ESE,114,0.0,-999.0,26,-99.99,,,0.00,weatherlink.com 1.10,2013-04-25 22:35:00,
2013-04-25 15:50:00,72.9,36.0,29.93,West,277,5.0,-999.0,26,-99.99,,,0.00,weatherlink.com 1.10,2013-04-25 22:50:00,
2013-04-25 16:05:00,73.9,36.0,29.94,SSW,208,1.0,-999.0,25,-99.99,,,0.00,weatherlink.com 1.10,2013-04-25 23:05:00,
2013-04-25 16:20:00,73.3,35.0,29.93,West,269,3.0,-999.0,25,-99.99,,,0.00,weatherlink.com 1.10,2013-04-25 23:20:00,
2013-04-25 16:35:00,73.1,34.0,29.93,ESE,119,4.0,-999.0,24,-99.99,,,0.00,weatherlink.com 1.10,2013-04-25 23:35:00,
2013-04-25 16:50:00,73.3,35.0,29.93,SSW,207,1.0,-999.0,25,-99.99,,,0.00,weatherlink.com 1.10,2013-04-25 23:50:00,
2013-04-25 17:05:00,73.6,35.0,29.94,SW,217,2.0,-999.0,24,-99.99,,,0.00,weatherlink.com 1.10,2013-04-26 00:05:00,
2013-04-25 17:20:00,73.3,34.0,29.93,SSE,155,5.0,-999.0,24,-99.99,,,0.00,weatherlink.com 1.10,2013-04-26 00:20:00,
2013-04-25 17:35:00,73.0,35.0,29.94,South,185,4.0,-999.0,25,-99.99,,,0.00,weatherlink.com 1.10,2013-04-26 00:35:00,
2013-04-25 17:50:00,72.4,38.0,29.94,SSW,194,3.0,-999.0,29,-99.99,,,0.00,weatherlink.com 1.10,2013-04-26 00:50:00,
2013-04-25 18:05:00,70.5,36.0,29.94,South,186,5.0,-999.0,28,-99.99,,,0.00,weatherlink.com 1.10,2013-04-26 01:05:00,
2013-04-25 18:20:00,69.6,37.0,29.94,SSW,193,2.0,-999.0,30,-99.99,,,0.00,weatherlink.com 1.10,2013-04-26 01:20:00,
2013-04-25 18:35:00,67.9,38.0,29.95,SW,215,1.0,-999.0,33,-99.99,,,0.00,weatherlink.com 1.10,2013-04-26 01:35:00,
2013-04-25 18:50:00,66.3,39.0,29.95,SW,215,0.0,-999.0,37,-99.99,,,0.00,weatherlink.com 1.10,2013-04-26 01:50:00,
2013-04-25 19:05:00,65.1,41.0,29.95,SW,215,0.0,-999.0,41,-99.99,,,0.00,weatherlink.com 1.10,2013-04-26 02:05:00,
2013-04-25 19:20:00,63.8,40.0,29.96,SW,215,0.0,-999.0,42,-99.99,,,0.00,weatherlink.com 1.10,2013-04-26 02:20:00,
2013-04-25 19:35:00,62.2,40.0,29.96,SW,215,0.0,-999.0,45,-99.99,,,0.00,weatherlink.com 1.10,2013-04-26 02:35:00,
2013-04-25 19:50:00,59.9,40.0,29.97,SW,215,0.0,-999.0,49,-99.99,,,0.00,weatherlink.com 1.10,2013-04-26 02:50:00,
2013-04-25 20:05:00,58.8,41.0,29.98,SW,215,0.0,-999.0,52,-99.99,,,0.00,weatherlink.com 1.10,2013-04-26 03:05:00,
2013-04-25 20:20:00,57.6,41.0,29.99,SW,215,0.0,-999.0,55,-99.99,,,0.00,weatherlink.com 1.10,2013-04-26 03:20:00,
2013-04-25 20:35:00,56.7,42.0,30.00,SW,215,0.0,-999.0,58,-99.99,,,0.00,weatherlink.com 1.10,2013-04-26 03:35:00,
2013-04-25 20:50:00,56.1,42.0,30.01,SW,215,0.0,-999.0,59,-99.99,,,0.00,weatherlink.com 1.10,2013-04-26 03:50:00,
2013-04-25 21:05:00,55.0,42.0,30.02,SW,215,0.0,-999.0,61,-99.99,,,0.00,weatherlink.com 1.10,2013-04-26 04:05:00,
2013-04-25 22:52:00,49.9,41.0,30.06,SW,215,0.0,-999.0,71,-99.99,,,0.00,weatherlink.com 1.10,2013-04-26 05:52:00,
2013-04-25 23:06:00,49.2,41.0,30.07,SW,215,0.0,-999.0,72,-99.99,,,0.00,weatherlink.com 1.10,2013-04-26 06:06:00,
2013-04-25 23:21:00,48.7,41.0,30.07,SW,215,0.0,-999.0,74,-99.99,,,0.00,weatherlink.com 1.10,2013-04-26 06:21:00,
2013-04-25 23:36:00,48.2,41.0,30.07,SW,215,0.0,-999.0,75,-99.99,,,0.00,weatherlink.com 1.10,2013-04-26 06:36:00,
2013-04-25 23:51:00,47.6,40.0,30.08,SW,215,0.0,-999.0,76,-99.99,,,0.00,weatherlink.com 1.10,2013-04-26 06:51:00,